Time;durP1;ratioP1;P1;durP2;ratioP2;P2;SDS_P1;SDS_P2;PMS_P1;PMS_P2;Temp;Humidity;BMP_temperature;BMP_pressure;BME280_temperature;BME280_humidity;BME280_pressure;Samples;Min_cycle;Max_cycle;Signal;HPM_P1;HPM_P2
2023/09/14 00:00:47;;;;;;;42.25;24.50;;;;;;;22.09;78.82;99078.09;5091680;28;20066;-45
2023/09/14 00:03:13;;;;;;;36.20;23.13;;;;;;;22.12;80.06;99080.22;5093014;28;20439;-45
2023/09/14 00:05:49;;;;;;;39.97;22.52;;;;;;;22.33;80.00;99080.25;5092869;28;20039;-45
2023/09/14 00:08:15;;;;;;;25.45;17.00;;;;;;;22.45;79.03;99078.09;5091877;28;20040;-45
2023/09/14 00:10:41;;;;;;;40.75;23.48;;;;;;;22.54;79.01;99073.03;5092788;28;20103;-45
2023/09/14 00:13:08;;;;;;;56.28;30.35;;;;;;;22.63;78.34;99071.41;5092690;28;20102;-45
2023/09/14 00:15:34;;;;;;;38.35;25.10;;;;;;;22.60;77.83;99073.84;5092762;28;20501;-45
2023/09/14 00:18:00;;;;;;;18.55;11.98;;;;;;;22.57;77.36;99069.81;5092793;28;20415;-45
2023/09/14 00:20:31;;;;;;;22.35;14.23;;;;;;;22.26;76.75;99077.06;5092476;28;20117;-45
2023/09/14 00:22:58;;;;;;;23.98;13.27;;;;;;;22.03;77.84;99076.47;5092749;28;20069;-45
2023/09/14 00:25:25;;;;;;;32.08;12.70;;;;;;;22.02;78.55;99074.06;5092602;28;20443;-45
2023/09/14 00:27:52;;;;;;;33.17;13.48;;;;;;;22.01;79.19;99069.78;5092580;28;20021;-45
2023/09/14 00:30:19;;;;;;;16.58;11.65;;;;;;;22.09;78.96;99075.44;5092459;28;20035;-45
2023/09/14 00:32:45;;;;;;;13.75;11.32;;;;;;;21.92;77.54;99077.53;5092406;28;20028;-45
2023/09/14 00:35:12;;;;;;;16.45;10.85;;;;;;;21.80;79.31;99068.97;5092381;28;20402;-45
2023/09/14 00:37:38;;;;;;;22.65;12.45;;;;;;;22.01;79.93;99065.22;5092575;28;20149;-45
2023/09/14 00:40:07;;;;;;;20.92;10.13;;;;;;;22.22;79.23;99062.59;5092523;28;20414;-45
2023/09/14 00:42:40;;;;;;;21.08;10.00;;;;;;;22.46;78.10;99057.53;5092283;28;20569;-45
2023/09/14 00:45:07;;;;;;;22.02;10.73;;;;;;;22.44;77.20;99062.34;5092511;28;20020;-45
2023/09/14 00:47:35;;;;;;;43.83;30.10;;;;;;;22.36;77.31;99052.19;5092181;28;20016;-45
2023/09/14 00:50:02;;;;;;;16.08;11.93;;;;;;;22.11;77.19;99056.41;5092182;28;20016;-45
2023/09/14 00:52:28;;;;;;;22.92;18.23;;;;;;;21.77;78.01;99053.44;5073970;28;20028;-45
2023/09/14 00:54:54;;;;;;;21.67;15.95;;;;;;;21.52;78.78;99049.66;5091130;28;20031;-45
2023/09/14 00:57:20;;;;;;;25.73;10.45;;;;;;;21.39;79.19;99055.47;5107820;28;20024;-45
2023/09/14 00:59:46;;;;;;;37.13;22.10;;;;;;;21.44;80.17;99063.53;5092228;28;20367;-45
2023/09/14 01:02:12;;;;;;;26.35;19.70;;;;;;;21.66;80.17;99055.31;5090939;28;20040;-45
2023/09/14 01:04:38;;;;;;;63.72;40.70;;;;;;;21.97;80.02;99050.81;5092174;28;20103;-45
2023/09/14 01:07:03;;;;;;;49.95;37.10;;;;;;;22.24;78.72;99061.28;5091956;28;20016;-45
2023/09/14 01:09:30;;;;;;;21.02;13.32;;;;;;;22.42;77.99;99056.47;5091980;28;20428;-45
2023/09/14 01:11:56;;;;;;;23.10;10.70;;;;;;;22.55;76.86;99053.22;5091882;28;20161;-45
2023/09/14 01:14:36;;;;;;;13.18;9.15;;;;;;;22.29;75.50;99047.88;5091876;28;20051;-45
2023/09/14 01:17:12;;;;;;;17.55;9.95;;;;;;;21.92;76.67;99043.59;5090631;28;20055;-45
2023/09/14 01:19:50;;;;;;;14.55;11.02;;;;;;;21.70;77.76;99041.16;5094888;28;20189;-44
2023/09/14 01:22:21;;;;;;;11.88;9.95;;;;;;;21.85;77.31;99045.72;5096071;28;20109;-45
2023/09/14 01:25:07;;;;;;;20.83;10.60;;;;;;;22.00;77.88;99038.78;5096340;28;20028;-45
2023/09/14 01:27:33;;;;;;;20.73;10.10;;;;;;;22.25;77.25;99035.34;5096002;28;20020;-45
2023/09/14 01:30:00;;;;;;;14.75;9.88;;;;;;;22.44;76.69;99035.59;5095951;28;20032;-45
2023/09/14 01:32:27;;;;;;;11.63;9.80;;;;;;;22.48;75.97;99034.78;5094494;28;20081;-45
2023/09/14 01:34:53;;;;;;;14.63;9.65;;;;;;;22.41;75.53;99034.25;5094536;28;20027;-45
2023/09/14 01:37:21;;;;;;;17.10;8.85;;;;;;;22.33;75.87;99032.13;5094406;28;20056;-45
2023/09/14 01:39:47;;;;;;;12.05;9.20;;;;;;;22.42;75.90;99027.06;5095747;28;20028;-45
2023/09/14 01:42:14;;;;;;;13.32;8.63;;;;;;;22.50;76.01;99026.50;5095589;28;20035;-45
2023/09/14 01:44:40;;;;;;;14.93;9.10;;;;;;;22.58;75.17;99025.13;5095645;28;20024;-45
2023/09/14 01:47:05;;;;;;;14.82;9.27;;;;;;;22.67;74.97;99028.84;5094270;28;20020;-45
2023/09/14 01:49:31;;;;;;;21.48;10.15;;;;;;;22.72;74.58;99021.63;5094261;28;20028;-45
2023/09/14 01:51:57;;;;;;;16.15;9.25;;;;;;;22.77;74.26;99020.81;5094122;28;20043;-45
2023/09/14 01:54:22;;;;;;;13.00;9.32;;;;;;;22.76;73.31;99024.56;5094179;28;20047;-45
2023/09/14 01:56:48;;;;;;;12.15;9.15;;;;;;;22.63;73.44;99022.44;5095471;28;20390;-45
2023/09/14 01:59:14;;;;;;;12.52;9.38;;;;;;;22.65;73.84;99026.44;5094034;28;20024;-45
2023/09/14 02:01:40;;;;;;;18.00;9.77;;;;;;;22.71;73.44;99022.69;5095326;28;20021;-45
2023/09/14 02:04:05;;;;;;;23.48;10.25;;;;;;;22.78;73.41;99026.94;5093999;28;20036;-45
2023/09/14 02:06:31;;;;;;;11.15;9.60;;;;;;;22.84;73.25;99021.31;5093885;28;20061;-45
2023/09/14 02:08:57;;;;;;;13.63;9.93;;;;;;;22.72;73.13;99021.63;5095428;28;20099;-45
2023/09/14 02:11:22;;;;;;;11.77;9.70;;;;;;;22.62;73.32;99027.00;5095073;28;20379;-45
2023/09/14 02:13:48;;;;;;;23.73;9.93;;;;;;;22.37;73.09;99025.16;5095039;28;20446;-45
2023/09/14 02:16:13;;;;;;;16.75;9.35;;;;;;;22.14;73.77;99023.81;5095048;28;20019;-45
2023/09/14 02:18:40;;;;;;;14.68;9.90;;;;;;;21.90;74.04;99029.69;5094754;28;20090;-45
2023/09/14 02:21:05;;;;;;;13.77;10.18;;;;;;;21.61;75.01;99026.72;5094963;28;20115;-45
2023/09/14 02:23:31;;;;;;;15.40;10.18;;;;;;;21.42;76.34;99025.56;5094985;28;20111;-45
2023/09/14 02:25:56;;;;;;;27.48;10.15;;;;;;;21.43;77.46;99013.84;5093526;28;20485;-45
2023/09/14 02:28:22;;;;;;;21.73;11.10;;;;;;;21.51;77.44;99019.50;5094818;28;20041;-45
2023/09/14 02:30:48;;;;;;;17.77;10.73;;;;;;;21.61;77.10;99017.91;5093645;28;20024;-45
2023/09/14 02:33:14;;;;;;;12.05;9.38;;;;;;;21.61;77.32;99010.69;5094542;28;20447;-45
2023/09/14 02:35:40;;;;;;;19.15;12.68;;;;;;;21.55;76.80;99006.41;5094718;28;20071;-45
2023/09/14 02:38:07;;;;;;;18.77;15.10;;;;;;;21.33;76.99;99007.41;5094929;28;20024;-45
2023/09/14 02:40:33;;;;;;;12.18;10.75;;;;;;;21.37;77.50;99006.84;5094520;28;20027;-45
2023/09/14 02:42:59;;;;;;;24.40;13.05;;;;;;;21.35;77.43;99010.59;5093207;28;20114;-45
2023/09/14 02:45:25;;;;;;;45.58;24.33;;;;;;;21.35;77.77;99001.81;5093145;28;20561;-45
2023/09/14 02:47:51;;;;;;;20.75;12.02;;;;;;;21.33;77.01;98998.59;5094397;28;20013;-45
2023/09/14 02:50:17;;;;;;;11.38;10.20;;;;;;;21.14;77.23;98999.06;5094582;28;20103;-45
2023/09/14 02:52:42;;;;;;;12.18;9.80;;;;;;;20.99;78.51;98999.00;5094327;28;20428;-45
2023/09/14 02:55:08;;;;;;;32.85;20.88;;;;;;;21.01;78.61;98996.09;5094285;28;20434;-45
2023/09/14 02:57:34;;;;;;;45.22;31.10;;;;;;;21.01;79.26;98999.56;5094312;28;20374;-45
2023/09/14 03:00:00;;;;;;;26.23;17.13;;;;;;;21.13;80.01;98992.13;5092897;28;20028;-45
2023/09/14 03:02:26;;;;;;;14.75;10.30;;;;;;;21.33;79.49;98999.38;5094186;28;20057;-45
2023/09/14 03:04:52;;;;;;;14.90;9.48;;;;;;;21.33;78.35;98996.72;5094129;28;20027;-45
2023/09/14 03:07:18;;;;;;;11.75;10.35;;;;;;;21.23;78.14;98996.69;5092692;28;20032;-45
2023/09/14 03:09:43;;;;;;;21.02;11.27;;;;;;;21.12;78.55;99008.38;5094278;28;20028;-45
2023/09/14 03:12:09;;;;;;;11.25;10.00;;;;;;;21.07;79.45;99005.72;5093905;28;20363;-45
2023/09/14 03:14:35;;;;;;;12.52;8.77;;;;;;;21.18;79.12;98999.34;5075870;28;20031;-45
2023/09/14 03:17:01;;;;;;;10.00;8.65;;;;;;;21.26;78.82;98998.03;5093858;28;20081;-45
2023/09/14 03:19:27;;;;;;;16.67;9.15;;;;;;;21.18;78.37;98996.66;5093608;28;20051;-45
2023/09/14 03:21:52;;;;;;;15.35;9.13;;;;;;;21.08;78.55;98996.63;5093793;28;20016;-45
2023/09/14 03:24:18;;;;;;;16.98;10.75;;;;;;;21.13;79.50;98988.66;5093687;28;20158;-45
2023/09/14 03:26:45;;;;;;;13.77;9.52;;;;;;;21.26;79.90;98987.34;5092408;28;20024;-45
2023/09/14 03:29:12;;;;;;;22.05;9.25;;;;;;;21.40;80.09;98985.78;5092311;28;20024;-45
2023/09/14 03:31:37;;;;;;;14.98;9.60;;;;;;;21.39;78.63;98983.38;5093882;28;20117;-45
2023/09/14 03:34:04;;;;;;;15.07;9.45;;;;;;;21.26;78.77;98982.00;5093451;28;20028;-45
2023/09/14 03:36:30;;;;;;;16.83;8.80;;;;;;;21.23;78.70;98986.03;5093753;28;20027;-45
2023/09/14 03:38:56;;;;;;;12.63;9.07;;;;;;;21.19;79.22;98981.44;5093440;28;20424;-45
2023/09/14 03:41:21;;;;;;;12.27;8.55;;;;;;;21.29;78.88;98987.63;5091862;28;20024;-45
2023/09/14 03:43:47;;;;;;;36.15;11.85;;;;;;;21.30;78.38;98983.88;5093442;28;20106;-45
2023/09/14 03:46:14;;;;;;;21.98;10.73;;;;;;;21.22;78.82;98981.72;5093326;28;20070;-45
2023/09/14 03:48:40;;;;;;;19.55;9.27;;;;;;;21.17;78.93;98972.91;5091989;28;20031;-44
2023/09/14 03:51:06;;;;;;;20.30;9.70;;;;;;;21.21;79.22;98972.13;5093237;28;20016;-45
2023/09/14 03:53:32;;;;;;;10.23;9.23;;;;;;;21.15;78.88;98981.19;5091818;28;20388;-45
2023/09/14 03:55:59;;;;;;;18.20;9.77;;;;;;;21.07;79.18;98973.69;5093069;28;20110;-45
2023/09/14 03:58:26;;;;;;;18.45;9.80;;;;;;;21.29;80.06;98976.97;5093341;28;20428;-45
2023/09/14 04:00:52;;;;;;;21.95;11.93;;;;;;;21.58;79.27;98973.81;5091752;28;20024;-45
2023/09/14 04:03:18;;;;;;;14.77;9.93;;;;;;;21.80;78.50;98968.22;5091742;28;20032;-45
2023/09/14 04:05:44;;;;;;;15.15;11.63;;;;;;;21.91;77.58;98963.69;5092938;28;20103;-45
2023/09/14 04:08:10;;;;;;;19.55;8.52;;;;;;;21.98;76.34;98960.75;5091652;28;20036;-45
2023/09/14 04:10:37;;;;;;;22.80;9.30;;;;;;;21.90;76.67;98960.22;5091515;28;20077;-45
2023/09/14 04:13:27;;;;;;;22.27;11.07;;;;;;;21.90;76.71;98965.56;5091425;28;20031;-45
2023/09/14 04:15:53;;;;;;;17.98;9.43;;;;;;;21.90;76.42;98976.25;5092997;28;20028;-45
2023/09/14 04:18:19;;;;;;;19.75;9.88;;;;;;;21.88;75.86;98969.56;5092724;28;20498;-45
2023/09/14 04:20:46;;;;;;;16.45;9.50;;;;;;;21.76;76.44;98977.06;5091374;28;20036;-45
2023/09/14 04:23:12;;;;;;;11.25;8.15;;;;;;;21.88;77.00;98974.91;5092677;28;20205;-45
2023/09/14 04:25:42;;;;;;;17.88;9.43;;;;;;;22.06;76.53;98966.34;5092592;28;20059;-45
2023/09/14 04:28:07;;;;;;;13.63;7.70;;;;;;;22.23;75.44;98967.94;5092545;28;20484;-45
2023/09/14 04:30:42;;;;;;;12.68;8.55;;;;;;;21.91;74.26;98972.53;5092521;28;20126;-45
2023/09/14 04:33:08;;;;;;;18.40;8.48;;;;;;;21.69;75.13;98974.63;5092476;28;20020;-45
2023/09/14 04:35:33;;;;;;;14.63;7.90;;;;;;;21.43;75.52;98971.13;5092349;28;20028;-44
2023/09/14 04:37:59;;;;;;;12.23;8.23;;;;;;;21.18;76.61;98972.66;5091064;28;20023;-45
2023/09/14 04:40:24;;;;;;;10.70;6.63;;;;;;;21.10;77.20;98975.81;5092327;28;20616;-45
2023/09/14 04:42:50;;;;;;;9.80;6.30;;;;;;;21.12;77.34;98971.03;5091058;28;20028;-45
2023/09/14 04:45:16;;;;;;;18.10;7.97;;;;;;;21.18;77.27;98975.31;5092520;28;20028;-45
2023/09/14 04:47:41;;;;;;;15.57;7.45;;;;;;;21.30;77.68;98970.53;5092253;28;20021;-45
2023/09/14 04:50:07;;;;;;;12.85;6.72;;;;;;;21.48;76.84;98968.47;5090896;28;20040;-45
2023/09/14 04:52:33;;;;;;;11.63;6.60;;;;;;;21.47;76.52;98970.34;5091851;28;20026;-45
2023/09/14 04:54:59;;;;;;;9.77;5.97;;;;;;;21.43;76.13;98979.13;5091831;28;20106;-45
2023/09/14 04:57:24;;;;;;;16.35;7.40;;;;;;;21.35;75.88;98975.91;5092131;28;20023;-44
2023/09/14 04:59:50;;;;;;;8.30;6.10;;;;;;;21.33;76.41;98975.38;5090712;28;20024;-45
2023/09/14 05:02:16;;;;;;;14.93;7.32;;;;;;;21.29;76.35;98970.81;5092020;28;20027;-45
2023/09/14 05:04:41;;;;;;;11.95;6.80;;;;;;;21.22;76.18;98970.25;5092073;28;20482;-45
2023/09/14 05:07:07;;;;;;;16.80;6.63;;;;;;;21.25;76.93;98965.19;5091952;28;20023;-45
2023/09/14 05:09:33;;;;;;;10.02;5.95;;;;;;;21.29;76.41;98971.63;5092042;28;20044;-46
2023/09/14 05:11:58;;;;;;;7.60;6.10;;;;;;;21.39;76.00;98972.69;5091840;28;20056;-45
2023/09/14 05:14:24;;;;;;;27.00;10.02;;;;;;;21.39;75.42;98980.69;5092017;28;20032;-45
2023/09/14 05:16:50;;;;;;;16.77;8.05;;;;;;;21.43;76.09;98979.13;5073800;28;20024;-45
2023/09/14 05:19:15;;;;;;;23.73;8.48;;;;;;;21.56;76.32;98986.66;5091719;28;20086;-45
2023/09/14 05:21:41;;;;;;;23.40;9.35;;;;;;;21.79;76.16;98987.19;5091874;28;20434;-44
2023/09/14 05:24:07;;;;;;;25.80;8.85;;;;;;;22.00;75.21;98988.81;5090511;28;20501;-45
2023/09/14 05:26:32;;;;;;;28.50;9.02;;;;;;;22.19;75.06;98989.06;5091781;28;20089;-45
2023/09/14 05:28:58;;;;;;;14.18;7.72;;;;;;;22.39;73.74;98982.91;5090440;28;20462;-45
2023/09/14 05:31:24;;;;;;;19.77;8.45;;;;;;;22.37;72.89;98993.06;5091813;28;20024;-45
2023/09/14 05:33:50;;;;;;;24.30;9.65;;;;;;;22.45;72.70;98994.41;5091657;28;20458;-45
2023/09/14 05:36:15;;;;;;;22.30;9.18;;;;;;;22.50;72.47;98995.19;5090413;28;20115;-45
2023/09/14 05:38:41;;;;;;;22.20;10.23;;;;;;;22.54;72.41;98990.13;5090375;28;20024;-45
2023/09/14 05:41:07;;;;;;;20.25;10.35;;;;;;;22.55;71.95;98994.38;5091630;28;20028;-45
2023/09/14 05:43:32;;;;;;;14.68;8.63;;;;;;;22.63;71.76;99004.50;5091612;28;20116;-45
2023/09/14 05:46:01;;;;;;;19.50;9.18;;;;;;;22.70;71.23;99009.59;5091542;28;20497;-45
2023/09/14 05:48:28;;;;;;;19.00;9.93;;;;;;;22.72;70.86;99010.13;5091566;28;20024;-45
2023/09/14 05:50:53;;;;;;;22.92;10.35;;;;;;;22.69;70.56;99016.81;5091619;28;20062;-45
2023/09/14 05:53:19;;;;;;;23.20;9.40;;;;;;;22.71;70.64;99017.34;5091545;28;20468;-45
2023/09/14 05:55:45;;;;;;;17.50;10.20;;;;;;;22.74;70.33;99019.47;5091475;28;20031;-45
2023/09/14 05:58:10;;;;;;;29.63;9.52;;;;;;;22.79;70.36;99026.69;5091411;28;20066;-44
2023/09/14 06:00:36;;;;;;;18.80;8.98;;;;;;;22.84;69.59;99032.03;5091697;28;20038;-45
2023/09/14 06:03:02;;;;;;;17.55;8.55;;;;;;;22.66;69.16;99033.41;5091453;28;20431;-45
2023/09/14 06:05:28;;;;;;;15.15;9.77;;;;;;;22.43;69.60;99036.66;5093940;28;20028;-45
2023/09/14 06:07:54;;;;;;;15.40;7.80;;;;;;;22.05;70.10;99044.91;5095184;28;20080;-45
2023/09/14 06:10:20;;;;;;;15.88;9.32;;;;;;;21.70;71.30;99040.34;5095225;28;20036;-45
2023/09/14 06:12:46;;;;;;;26.17;21.90;;;;;;;21.49;71.92;99043.00;5095100;28;20495;-45
2023/09/14 06:15:12;;;;;;;20.08;11.70;;;;;;;21.39;72.87;99040.25;5093770;28;20111;-44
2023/09/14 06:17:38;;;;;;;24.55;10.52;;;;;;;21.44;73.42;99037.63;5095086;28;20099;-44
2023/09/14 06:20:05;;;;;;;41.72;11.10;;;;;;;21.56;73.44;99040.06;5094743;28;20044;-44
2023/09/14 06:22:31;;;;;;;12.90;7.38;;;;;;;21.61;72.74;99048.09;5095000;28;20029;-45
2023/09/14 06:24:57;;;;;;;18.13;8.38;;;;;;;21.56;72.35;99044.59;5094893;28;20018;-45
2023/09/14 06:27:22;;;;;;;11.52;6.65;;;;;;;21.46;72.21;99048.03;5093518;28;20081;-45
2023/09/14 06:29:48;;;;;;;15.95;7.53;;;;;;;21.39;72.27;99050.13;5094861;28;20103;-45
2023/09/14 06:32:14;;;;;;;12.73;7.45;;;;;;;21.36;72.72;99051.44;5094696;28;20039;-45
2023/09/14 06:34:39;;;;;;;20.40;9.45;;;;;;;21.36;72.90;99046.13;5095034;28;20024;-45
2023/09/14 06:37:05;;;;;;;17.00;7.40;;;;;;;21.58;73.10;99047.81;5094645;28;20405;-45
2023/09/14 06:39:31;;;;;;;13.30;7.35;;;;;;;21.63;71.71;99053.97;5094663;28;20114;-45
2023/09/14 06:41:56;;;;;;;23.40;8.00;;;;;;;21.60;71.47;99054.50;5094516;28;20046;-45
2023/09/14 06:44:23;;;;;;;28.08;8.23;;;;;;;21.71;71.63;99056.13;5093273;28;20074;-44
2023/09/14 06:46:49;;;;;;;12.88;6.55;;;;;;;21.76;70.67;99059.88;5093169;28;20055;-45
2023/09/14 06:49:14;;;;;;;15.27;6.30;;;;;;;21.86;70.31;99059.88;5094504;28;20045;-45
2023/09/14 06:51:41;;;;;;;28.55;9.52;;;;;;;21.91;70.19;99052.69;5093045;28;20020;-45
2023/09/14 06:54:07;;;;;;;19.10;6.85;;;;;;;22.00;70.16;99046.81;5094295;28;20020;-45
2023/09/14 06:56:33;;;;;;;18.08;7.90;;;;;;;21.95;70.03;99047.59;5094307;28;20034;-45
2023/09/14 06:58:58;;;;;;;11.20;6.03;;;;;;;22.01;69.72;99051.88;5094490;28;20063;-45
2023/09/14 07:01:24;;;;;;;30.92;8.95;;;;;;;22.18;69.75;99059.66;5094230;28;20497;-45
2023/09/14 07:03:51;;;;;;;17.05;8.25;;;;;;;22.51;68.97;99049.47;5094108;28;20462;-45
2023/09/14 07:06:17;;;;;;;11.27;5.60;;;;;;;22.79;67.80;99044.63;5094039;28;20038;-45
2023/09/14 07:08:43;;;;;;;28.67;7.97;;;;;;;23.05;66.60;99045.38;5094286;28;20028;-45
2023/09/14 07:11:09;;;;;;;13.35;6.38;;;;;;;23.16;65.75;99046.94;5094057;28;20486;-45
2023/09/14 07:13:35;;;;;;;42.97;38.30;;;;;;;23.08;65.52;99048.31;5093922;28;20489;-45
2023/09/14 07:16:03;;;;;;;31.63;10.70;;;;;;;22.94;65.88;99058.75;5093381;28;20047;-45
2023/09/14 07:18:32;;;;;;;20.85;12.15;;;;;;;22.98;65.62;99061.69;5093522;28;20097;-45
2023/09/14 07:21:00;;;;;;;7.45;5.40;;;;;;;22.94;65.41;99058.75;5092577;28;20404;-45
2023/09/14 07:23:26;;;;;;;26.05;7.45;;;;;;;22.90;65.37;99055.03;5093783;28;20039;-45
2023/09/14 07:25:52;;;;;;;20.65;6.82;;;;;;;22.83;64.89;99062.53;5094020;28;20017;-45
2023/09/14 07:28:20;;;;;;;11.50;4.60;;;;;;;22.52;65.20;99059.13;5093699;28;20497;-45
2023/09/14 07:30:50;;;;;;;15.43;6.63;;;;;;;22.51;66.34;99058.31;5092289;28;20039;-45
2023/09/14 07:33:16;;;;;;;25.13;7.45;;;;;;;22.70;66.02;99063.91;5093603;28;20028;-45
2023/09/14 07:35:42;;;;;;;19.17;7.97;;;;;;;22.85;65.76;99065.72;5093539;28;20482;-45
2023/09/14 07:38:09;;;;;;;14.77;6.78;;;;;;;23.17;65.52;99053.88;5093495;28;20024;-45
2023/09/14 07:40:36;;;;;;;13.18;7.13;;;;;;;23.40;65.10;99054.31;5093482;28;20019;-45
2023/09/14 07:43:02;;;;;;;23.15;7.50;;;;;;;23.63;65.11;99048.31;5092123;28;20524;-45
2023/09/14 07:45:30;;;;;;;22.05;5.97;;;;;;;23.92;63.71;99053.78;5093343;28;20016;-45
2023/09/14 07:47:56;;;;;;;14.43;6.00;;;;;;;24.05;62.87;99054.22;5093341;28;20028;-45
2023/09/14 07:50:21;;;;;;;13.82;8.10;;;;;;;24.13;61.91;99054.41;5091988;28;20032;-45
2023/09/14 07:52:47;;;;;;;9.52;5.40;;;;;;;24.30;61.34;99055.88;5093160;28;20089;-45
2023/09/14 07:55:13;;;;;;;7.97;4.15;;;;;;;24.68;59.75;99056.88;5091910;28;20054;-45
2023/09/14 07:57:39;;;;;;;15.70;4.85;;;;;;;24.95;58.33;99060.09;5093096;28;20024;-45
2023/09/14 08:00:06;;;;;;;8.35;4.10;;;;;;;25.26;57.65;99066.75;5093094;28;20485;-45
2023/09/14 08:02:32;;;;;;;6.80;3.75;;;;;;;26.28;55.94;99063.69;5093319;28;20119;-45
2023/09/14 08:04:58;;;;;;;19.70;4.72;;;;;;;27.67;52.02;99059.94;5092994;28;20059;-45
2023/09/14 08:07:24;;;;;;;13.70;5.20;;;;;;;29.13;47.55;99064.94;5092906;28;20059;-45
2023/09/14 08:09:49;;;;;;;21.00;5.60;;;;;;;29.65;46.07;99061.53;5093131;28;20024;-45
2023/09/14 08:12:15;;;;;;;8.10;3.90;;;;;;;30.20;44.42;99066.31;5092715;28;20020;-46
2023/09/14 08:14:41;;;;;;;10.65;4.43;;;;;;;30.12;43.68;99071.72;5092697;28;20020;-46
2023/09/14 08:17:06;;;;;;;27.95;5.55;;;;;;;29.61;44.50;99074.91;5074471;28;20032;-46
2023/09/14 08:19:32;;;;;;;10.02;4.80;;;;;;;29.03;45.34;99076.03;5092355;28;20036;-45
2023/09/14 08:21:59;;;;;;;10.55;4.75;;;;;;;28.35;46.65;99070.75;5092524;28;20497;-46
2023/09/14 08:24:25;;;;;;;19.98;5.45;;;;;;;27.75;48.36;99071.91;5092505;28;20028;-45
2023/09/14 08:26:51;;;;;;;17.23;5.15;;;;;;;27.26;49.09;99073.50;5091107;28;20030;-45
2023/09/14 08:29:16;;;;;;;17.27;4.57;;;;;;;26.88;50.13;99071.81;5091656;28;20493;-45
2023/09/14 08:31:43;;;;;;;27.83;8.40;;;;;;;26.58;51.43;99075.88;5092442;28;20031;-45
2023/09/14 08:34:09;;;;;;;30.90;7.93;;;;;;;26.43;51.63;99070.72;5092326;28;20494;-45
2023/09/14 08:36:38;;;;;;;25.27;14.55;;;;;;;26.29;52.57;99074.16;5092378;28;20019;-45
2023/09/14 08:39:04;;;;;;;29.92;8.80;;;;;;;25.99;53.25;99085.41;5092342;28;20059;-45
2023/09/14 08:41:43;;;;;;;10.40;4.55;;;;;;;25.97;53.49;99079.53;5092308;28;20103;-45
2023/09/14 08:44:09;;;;;;;7.28;5.35;;;;;;;26.05;52.63;99079.66;5092286;28;20032;-45
2023/09/14 08:46:35;;;;;;;22.63;8.52;;;;;;;26.01;52.97;99084.00;5092406;28;20031;-45
2023/09/14 08:49:03;;;;;;;9.10;4.93;;;;;;;26.40;51.69;99074.78;5074181;28;20024;-45
2023/09/14 08:51:37;;;;;;;7.65;3.72;;;;;;;28.16;48.81;99068.28;5092306;28;20118;-45
2023/09/14 08:54:04;;;;;;;23.35;4.60;;;;;;;31.11;42.89;99065.38;5090960;28;20413;-45
2023/09/14 08:56:30;;;;;;;21.33;6.55;;;;;;;32.96;38.77;99056.03;5090650;28;20051;-46
2023/09/14 08:59:01;;;;;;;11.30;4.50;;;;;;;33.20;37.10;99064.22;5092069;28;20561;-46
2023/09/14 09:01:27;;;;;;;32.95;7.25;;;;;;;32.28;38.81;99060.03;5092259;28;20089;-45
2023/09/14 09:03:53;;;;;;;17.15;4.63;;;;;;;31.22;39.39;99064.66;5091993;28;20435;-45
2023/09/14 09:06:20;;;;;;;38.50;8.40;;;;;;;30.35;41.21;99056.91;5091840;28;20028;-46
2023/09/14 09:08:46;;;;;;;19.80;5.75;;;;;;;30.78;41.26;99058.66;5090581;28;20418;-45
2023/09/14 09:11:12;;;;;;;17.83;5.65;;;;;;;32.62;37.97;99045.28;5091918;28;20012;-46
2023/09/14 09:13:44;;;;;;;12.48;5.30;;;;;;;33.19;36.82;99045.50;5090430;28;20193;-46
2023/09/14 09:16:13;;;;;;;48.85;8.00;;;;;;;32.35;37.58;99056.75;5091840;28;20099;-46
2023/09/14 09:19:02;;;;;;;21.02;6.03;;;;;;;31.04;39.33;99057.75;5091569;28;20035;-46
2023/09/14 09:21:29;;;;;;;25.73;5.22;;;;;;;30.30;41.28;99053.53;5091703;28;20560;-45
2023/09/14 09:23:55;;;;;;;22.02;5.50;;;;;;;30.06;40.98;99047.53;5091996;28;20024;-46
2023/09/14 09:26:20;;;;;;;18.77;4.63;;;;;;;30.40;40.52;99045.88;5091995;28;20497;-46
2023/09/14 09:28:47;;;;;;;8.73;4.05;;;;;;;31.52;39.49;99045.69;5090475;28;20554;-45
2023/09/14 09:31:13;;;;;;;23.33;5.38;;;;;;;33.07;36.80;99032.69;5091711;28;20032;-46
2023/09/14 09:33:40;;;;;;;24.15;5.30;;;;;;;34.84;34.51;99030.13;5091611;28;20042;-46
2023/09/14 09:36:16;;;;;;;16.42;4.15;;;;;;;35.43;32.03;99029.09;5091691;28;20031;-46
2023/09/14 09:38:42;;;;;;;11.98;3.88;;;;;;;34.01;33.13;99028.03;5091613;28;20512;-46
2023/09/14 09:41:11;;;;;;;15.15;4.47;;;;;;;32.51;34.85;99027.00;5094117;28;20032;-46
2023/09/14 09:43:39;;;;;;;15.32;4.97;;;;;;;31.22;37.26;99031.34;5095726;28;20020;-46
2023/09/14 09:46:19;;;;;;;6.43;3.00;;;;;;;30.71;38.52;99028.56;5095527;28;20027;-46
2023/09/14 09:48:45;;;;;;;20.70;5.45;;;;;;;32.59;37.03;99007.13;5094338;28;20422;-46
2023/09/14 09:51:11;;;;;;;17.67;5.15;;;;;;;34.18;34.08;99005.91;5095543;28;20079;-46
2023/09/14 09:53:37;;;;;;;10.65;3.50;;;;;;;35.00;32.20;99001.66;5095453;28;20020;-46
2023/09/14 09:56:03;;;;;;;10.75;3.00;;;;;;;35.57;30.79;98996.59;5095692;28;20089;-46
2023/09/14 09:58:35;;;;;;;14.27;4.28;;;;;;;34.92;32.02;99001.88;5095402;28;20059;-46
2023/09/14 10:01:01;;;;;;;39.75;7.18;;;;;;;34.25;32.98;98993.63;5095371;28;20035;-46
2023/09/14 10:03:27;;;;;;;8.90;3.15;;;;;;;33.10;33.99;98988.53;5095393;28;20355;-46
2023/09/14 10:05:52;;;;;;;17.02;3.70;;;;;;;32.15;35.51;98995.94;5095385;28;20473;-46
2023/09/14 10:08:20;;;;;;;9.20;3.10;;;;;;;32.15;36.29;98990.50;5095525;28;20020;-46
2023/09/14 10:10:51;;;;;;;10.07;3.75;;;;;;;31.98;35.64;98992.25;5095085;28;20103;-46
2023/09/14 10:13:23;;;;;;;5.40;3.45;;;;;;;31.22;37.27;98988.75;5095118;28;20051;-46
2023/09/14 10:15:56;;;;;;;8.63;3.15;;;;;;;32.38;36.38;98985.47;5095134;28;20044;-46
2023/09/14 10:18:24;;;;;;;7.97;2.92;;;;;;;34.00;33.74;98977.41;5094887;28;20035;-47
2023/09/14 10:20:55;;;;;;;5.40;3.15;;;;;;;35.12;31.51;98976.19;5095030;28;20077;-46
2023/09/14 10:23:22;;;;;;;9.98;3.40;;;;;;;35.76;30.50;98973.22;5095073;28;20028;-46
2023/09/14 10:25:50;;;;;;;10.85;3.22;;;;;;;36.56;29.42;98956.97;5094950;28;20027;-46
2023/09/14 10:28:16;;;;;;;10.25;3.53;;;;;;;36.98;29.21;98964.22;5094896;28;20436;-46
2023/09/14 10:30:46;;;;;;;5.50;2.47;;;;;;;36.02;29.16;98966.22;5094862;28;20031;-48
2023/09/14 10:33:14;;;;;;;5.65;2.45;;;;;;;34.66;31.00;98962.31;5094711;28;20024;-46
2023/09/14 10:35:40;;;;;;;64.95;5.55;;;;;;;33.42;32.87;98964.16;5094603;28;20060;-46
2023/09/14 10:38:07;;;;;;;32.53;3.58;;;;;;;32.46;33.97;98965.53;5094675;28;20020;-46
2023/09/14 10:40:37;;;;;;;84.72;7.55;;;;;;;31.55;35.76;98966.34;5094541;28;20032;-46
2023/09/14 10:43:03;;;;;;;32.70;4.22;;;;;;;30.77;37.44;98973.06;5094488;28;20062;-46
2023/09/14 10:45:43;;;;;;;5.03;2.58;;;;;;;29.89;38.56;98963.66;5094708;28;20059;-46
2023/09/14 10:48:18;;;;;;;24.60;3.47;;;;;;;29.32;40.08;98966.53;5094460;28;20512;-46
2023/09/14 10:50:44;;;;;;;8.38;3.00;;;;;;;29.02;40.67;98969.06;5093623;28;20032;-46
2023/09/14 10:53:14;;;;;;;15.38;3.78;;;;;;;28.93;41.41;98962.81;5094067;28;20016;-46
2023/09/14 10:55:42;;;;;;;17.15;4.57;;;;;;;29.19;41.55;98969.09;5094329;28;20020;-46
2023/09/14 10:58:12;;;;;;;7.03;2.90;;;;;;;30.12;40.18;98964.22;5094304;28;20378;-45
2023/09/14 11:00:42;;;;;;;9.90;4.50;;;;;;;31.62;37.39;98961.16;5094247;28;20020;-46
2023/09/14 11:03:09;;;;;;;15.43;5.20;;;;;;;33.29;34.98;98957.19;5094213;28;20028;-46
2023/09/14 11:05:46;;;;;;;18.55;4.28;;;;;;;34.98;32.25;98954.06;5094340;28;20031;-46
2023/09/14 11:08:14;;;;;;;15.38;3.97;;;;;;;35.10;30.66;98958.59;5094002;28;20032;-46
2023/09/14 11:10:53;;;;;;;12.57;3.95;;;;;;;34.06;32.02;98947.97;5093936;28;20561;-46
2023/09/14 11:13:19;;;;;;;21.50;5.00;;;;;;;33.11;33.62;98951.25;5093972;28;20032;-46
2023/09/14 11:16:03;;;;;;;33.97;6.63;;;;;;;32.67;34.07;98940.97;5093922;28;20084;-46
2023/09/14 11:18:44;;;;;;;9.10;3.20;;;;;;;32.72;34.00;98948.91;5093649;28;20024;-47
2023/09/14 11:21:32;;;;;;;22.52;3.78;;;;;;;32.20;34.28;98949.56;5092809;28;20039;-46
2023/09/14 11:23:58;;;;;;;16.38;2.92;;;;;;;32.36;34.84;98945.03;5093821;28;20027;-46